Orwell, New York
Current Conditions -  °F | °C
As of 3:54 AM on Thursday 23 Oct 2014 (Local Time) from KFZY Reporting Station
Overcast Overcast  
Wind Chill: 40°   Ceiling: 8500
Heat Index: 46°   Visibility: 10mi
Dew Point: 36°   Wind: 14mph
Humidity: 68%   Direction: 10°N
Pressure: 30.03"   Gusts: 25mph
Location:  43.57°N, 76°W
Report Text: KFZY 230754Z AUTO 01012G22KT 10SM OVC085 08/02 A3003 RMK AO2 SLP170 T00780022
Loading
Personal Weather Stations






























Interactive Weather Map
Tropical Storm Tracking
New forecast layout! Learn more

10-Day Weather Forecast

Advertisements
Track Severe Weather on mobile